createdAt,value
2022-12-06T00:00:23.431Z,9.75
2022-12-06T00:04:25.157Z,8.52
2022-12-06T00:08:26.903Z,9.25
2022-12-06T00:12:28.541Z,9.93
2022-12-06T00:16:31.030Z,7.53
2022-12-06T00:20:34.025Z,10.25
2022-12-06T00:24:36.087Z,8.02
2022-12-06T00:28:38.528Z,7.50
2022-12-06T00:32:40.080Z,7.80
2022-12-06T00:36:42.444Z,8.38
2022-12-06T00:40:44.022Z,8.52
2022-12-06T00:44:45.626Z,9.88
2022-12-06T00:48:48.246Z,7.18
2022-12-06T00:52:49.780Z,8.05
2022-12-06T00:56:51.353Z,6.88
2022-12-06T01:00:53.392Z,7.40
2022-12-06T01:04:55.361Z,7.93
2022-12-06T01:08:59.331Z,6.28
2022-12-06T01:13:01.389Z,10.20
2022-12-06T01:17:03.238Z,6.95
2022-12-06T01:21:13.157Z,7.28
2022-12-06T01:25:14.864Z,9.40
2022-12-06T01:29:17.164Z,7.85
2022-12-06T01:33:18.882Z,8.10
2022-12-06T01:37:20.490Z,9.10
2022-12-06T01:41:24.186Z,8.30
2022-12-06T01:45:25.745Z,9.07
2022-12-06T01:49:31.338Z,9.63
2022-12-06T01:53:33.044Z,9.45
2022-12-06T01:57:34.888Z,8.52
2022-12-06T02:01:38.392Z,7.80
2022-12-06T02:05:41.046Z,7.68
2022-12-06T02:09:43.292Z,8.18
2022-12-06T02:13:45.341Z,8.32
2022-12-06T02:17:50.834Z,9.27
2022-12-06T02:22:03.067Z,8.90
2022-12-06T02:26:17.144Z,8.35
2022-12-06T02:30:54.167Z,7.78
2022-12-06T02:35:34.783Z,11.13
2022-12-06T02:39:49.318Z,7.47
2022-12-06T02:43:58.518Z,7.13
2022-12-06T02:48:02.765Z,9.35
2022-12-06T02:52:04.665Z,8.82
2022-12-06T02:56:06.360Z,7.65
2022-12-06T03:00:29.821Z,8.05
2022-12-06T03:05:03.488Z,7.05
2022-12-06T03:09:16.538Z,8.40
2022-12-06T03:13:34.908Z,8.07
2022-12-06T03:17:53.292Z,8.23
2022-12-06T03:22:04.713Z,7.93
2022-12-06T03:26:07.489Z,7.55
2022-12-06T03:30:12.932Z,7.78
2022-12-06T03:34:34.747Z,7.80
2022-12-06T03:38:41.728Z,8.02
2022-12-06T03:42:44.551Z,6.65
2022-12-06T03:46:49.311Z,7.18
2022-12-06T03:50:58.658Z,8.45
2022-12-06T03:55:00.744Z,7.47
2022-12-06T03:59:06.469Z,7.93
2022-12-06T04:03:08.204Z,9.57
2022-12-06T04:07:10.776Z,8.15
2022-12-06T04:11:12.381Z,8.68
2022-12-06T04:15:14.442Z,7.85
2022-12-06T04:19:16.005Z,8.98
2022-12-06T04:23:21.675Z,8.77
2022-12-06T04:27:41.919Z,7.25
2022-12-06T04:32:02.833Z,7.05
2022-12-06T04:36:23.630Z,6.43
2022-12-06T04:40:25.313Z,7.53
2022-12-06T04:44:26.922Z,6.70
2022-12-06T04:48:28.575Z,8.27
2022-12-06T04:52:35.384Z,7.25
2022-12-06T04:56:37.742Z,6.75
2022-12-06T05:00:43.772Z,7.93
2022-12-06T05:04:45.601Z,7.28
2022-12-06T05:08:48.668Z,9.18
2022-12-06T05:12:50.285Z,7.25
2022-12-06T05:16:52.740Z,7.50
2022-12-06T05:21:04.760Z,7.65
2022-12-06T05:25:06.630Z,8.10
2022-12-06T05:29:08.287Z,9.00
2022-12-06T05:33:09.907Z,9.65
2022-12-06T05:37:11.873Z,10.13
2022-12-06T05:41:13.779Z,8.88
2022-12-06T05:45:15.846Z,7.60
2022-12-06T05:49:17.382Z,8.38
2022-12-06T05:53:18.919Z,9.70
2022-12-06T05:57:21.032Z,12.27
2022-12-06T06:01:22.680Z,9.98
2022-12-06T06:05:24.457Z,9.10
2022-12-06T06:09:29.990Z,10.45
2022-12-06T06:13:31.509Z,8.15
2022-12-06T06:17:34.337Z,8.32
2022-12-06T06:21:36.073Z,8.32
2022-12-06T06:25:40.879Z,8.43
2022-12-06T06:29:45.511Z,17.08
2022-12-06T06:33:47.841Z,9.43
2022-12-06T06:37:49.928Z,7.60
2022-12-06T06:41:51.415Z,9.73
2022-12-06T06:45:53.983Z,8.95
2022-12-06T06:49:55.648Z,9.02
2022-12-06T06:53:57.354Z,7.70
2022-12-06T06:57:59.130Z,10.05
2022-12-06T07:02:00.892Z,7.20
2022-12-06T07:06:07.050Z,6.65
2022-12-06T07:10:09.238Z,6.57
2022-12-06T07:14:10.801Z,9.32
2022-12-06T07:18:12.773Z,8.50
2022-12-06T07:22:14.698Z,8.57
2022-12-06T07:26:18.588Z,9.32
2022-12-06T07:30:25.752Z,8.98
2022-12-06T07:34:29.085Z,7.70
2022-12-06T07:38:30.932Z,9.15
2022-12-06T07:42:51.393Z,10.38
2022-12-06T07:46:55.272Z,9.50
2022-12-06T07:50:56.791Z,8.25
2022-12-06T07:54:58.431Z,9.40
2022-12-06T07:59:01.079Z,10.23
2022-12-06T08:03:02.952Z,8.82
2022-12-06T08:07:04.484Z,10.98
2022-12-06T08:11:08.334Z,9.60
2022-12-06T08:15:13.317Z,10.50
2022-12-06T08:19:14.866Z,9.93
2022-12-06T08:23:16.787Z,9.52
2022-12-06T08:27:18.431Z,11.73
2022-12-06T08:31:23.498Z,8.77
2022-12-06T08:35:25.529Z,10.13
2022-12-06T08:39:28.554Z,9.13
2022-12-06T08:43:31.540Z,7.65
2022-12-06T08:47:33.462Z,9.10
2022-12-06T08:51:35.890Z,9.93
2022-12-06T08:55:38.827Z,11.63
2022-12-06T08:59:40.927Z,9.10
2022-12-06T09:03:42.598Z,9.30
2022-12-06T09:07:44.681Z,9.70
2022-12-06T09:11:46.937Z,10.60
2022-12-06T09:15:49.140Z,9.93
2022-12-06T09:19:50.897Z,9.35
2022-12-06T09:23:55.825Z,10.48
2022-12-06T09:27:58.325Z,13.68
2022-12-06T09:31:59.994Z,9.02
2022-12-06T09:36:04.717Z,11.25
2022-12-06T09:40:13.463Z,10.80
2022-12-06T09:44:31.069Z,9.82
2022-12-06T09:52:58.916Z,11.57
2022-12-06T09:57:39.080Z,9.77
2022-12-06T10:02:12.811Z,11.50
2022-12-06T10:06:16.841Z,9.02
2022-12-06T10:10:49.236Z,12.98
2022-12-06T10:15:18.445Z,12.52
2022-12-06T10:20:01.385Z,9.57
2022-12-06T10:24:03.399Z,14.85
2022-12-06T10:28:15.378Z,29.10
2022-12-06T10:32:19.348Z,14.02
2022-12-06T10:36:46.840Z,21.60
2022-12-06T10:45:00.255Z,20.17
2022-12-06T10:49:01.758Z,19.83
2022-12-06T10:53:15.725Z,21.00
2022-12-06T10:57:21.783Z,23.90
2022-12-06T11:01:28.881Z,23.58
2022-12-06T11:05:41.102Z,21.15
2022-12-06T11:09:46.131Z,21.88
2022-12-06T11:13:49.837Z,25.48
2022-12-06T11:18:17.167Z,20.25
2022-12-06T11:22:39.605Z,18.95
2022-12-06T11:26:57.712Z,19.33
2022-12-06T11:30:59.964Z,16.33
2022-12-06T11:35:01.659Z,16.92
2022-12-06T11:39:04.409Z,17.35
2022-12-06T11:43:10.294Z,15.48
2022-12-06T11:47:16.047Z,17.40
2022-12-06T11:51:21.293Z,15.02
2022-12-06T11:55:26.678Z,17.55
2022-12-06T11:59:31.938Z,19.42
2022-12-06T12:03:36.260Z,17.73
2022-12-06T12:07:39.168Z,18.33
2022-12-06T12:11:42.792Z,17.95
2022-12-06T12:15:50.769Z,20.75
2022-12-06T12:20:05.706Z,21.17
2022-12-06T12:25:18.361Z,20.27
2022-12-06T12:29:22.130Z,22.75
2022-12-06T12:33:25.588Z,17.95
2022-12-06T12:37:27.205Z,21.52
2022-12-06T12:41:55.774Z,20.58
2022-12-06T12:46:12.357Z,18.00
2022-12-06T12:50:13.870Z,18.63
2022-12-06T12:54:35.878Z,20.33
2022-12-06T12:58:38.388Z,19.00
2022-12-06T13:02:40.878Z,18.95
2022-12-06T13:06:49.421Z,17.10
2022-12-06T13:10:58.789Z,19.60
2022-12-06T13:15:07.819Z,14.27
2022-12-06T13:19:15.658Z,15.18
2022-12-06T13:23:20.007Z,16.42
2022-12-06T13:27:23.213Z,11.25
2022-12-06T13:31:31.368Z,12.15
2022-12-06T13:35:45.341Z,12.07
2022-12-06T13:39:50.522Z,13.52
2022-12-06T13:43:52.924Z,9.68
2022-12-06T13:47:54.543Z,10.07
2022-12-06T13:51:56.028Z,12.60
2022-12-06T13:56:04.230Z,8.52
2022-12-06T14:00:28.820Z,9.43
2022-12-06T14:08:44.677Z,11.40
2022-12-06T14:12:59.605Z,9.40
2022-12-06T14:17:04.682Z,13.02
2022-12-06T14:21:06.580Z,9.57
2022-12-06T14:25:22.982Z,8.43
2022-12-06T14:29:26.019Z,11.05
2022-12-06T14:33:27.772Z,11.80
2022-12-06T14:37:30.294Z,16.55
2022-12-06T14:41:56.762Z,16.08
2022-12-06T14:46:00.231Z,16.33
2022-12-06T14:50:20.975Z,14.88
2022-12-06T14:54:36.480Z,15.20
2022-12-06T14:58:41.963Z,15.20
2022-12-06T15:03:08.844Z,17.38
2022-12-06T15:07:30.967Z,15.43
2022-12-06T15:11:54.317Z,11.70
2022-12-06T15:16:08.137Z,7.22
2022-12-06T15:20:15.728Z,8.85
2022-12-06T15:28:20.222Z,8.35
2022-12-06T15:32:23.588Z,7.55
2022-12-06T15:36:31.105Z,7.53
2022-12-06T15:40:32.594Z,9.77
2022-12-06T15:44:34.240Z,9.18
2022-12-06T15:48:37.801Z,8.05
2022-12-06T15:52:39.766Z,8.93
2022-12-06T15:56:41.379Z,10.52
2022-12-06T16:00:43.171Z,8.65
2022-12-06T16:04:45.444Z,9.68
2022-12-06T16:08:47.552Z,10.43
2022-12-06T16:13:07.712Z,10.32
2022-12-06T16:17:10.038Z,8.85
2022-12-06T16:21:25.656Z,8.63
2022-12-06T16:25:27.535Z,7.57
2022-12-06T16:29:29.237Z,7.75
2022-12-06T16:33:30.953Z,9.18
2022-12-06T16:37:33.078Z,9.38
2022-12-06T16:41:36.196Z,8.70
2022-12-06T16:45:40.281Z,9.52
2022-12-06T16:49:46.794Z,8.30
2022-12-06T16:53:49.881Z,11.20
2022-12-06T16:57:51.405Z,21.55
2022-12-06T17:01:54.630Z,17.77
2022-12-06T17:05:56.263Z,29.73
2022-12-06T17:09:58.242Z,32.10
2022-12-06T17:13:59.759Z,17.10
2022-12-06T17:18:01.325Z,31.10
2022-12-06T17:22:03.485Z,20.00
2022-12-06T17:26:05.766Z,16.80
2022-12-06T17:30:13.395Z,14.05
2022-12-06T17:34:16.499Z,13.80
2022-12-06T17:38:18.338Z,9.75
2022-12-06T17:42:38.590Z,11.00
2022-12-06T17:46:42.012Z,13.15
2022-12-06T17:50:43.651Z,15.38
2022-12-06T17:54:45.145Z,26.40
2022-12-06T17:58:46.754Z,16.90
2022-12-06T18:02:49.279Z,12.98
2022-12-06T18:06:50.871Z,17.17
2022-12-06T18:10:59.249Z,16.85
2022-12-06T18:15:01.226Z,18.38
2022-12-06T18:19:08.879Z,19.58
2022-12-06T18:27:12.123Z,10.88
2022-12-06T18:31:13.688Z,9.18
2022-12-06T18:35:15.490Z,9.90
2022-12-06T18:39:25.285Z,11.93
2022-12-06T18:43:27.006Z,13.70
2022-12-06T18:47:28.463Z,10.75
2022-12-06T18:51:33.533Z,9.27
2022-12-06T18:55:35.016Z,9.35
2022-12-06T18:59:38.202Z,12.52
2022-12-06T19:03:40.417Z,14.68
2022-12-06T19:07:42.286Z,13.15
2022-12-06T19:11:46.710Z,14.60
2022-12-06T19:15:48.557Z,14.40
2022-12-06T19:19:50.176Z,15.95
2022-12-06T19:23:56.095Z,14.85
2022-12-06T19:27:57.749Z,13.95
2022-12-06T19:31:59.637Z,14.63
2022-12-06T19:36:04.458Z,17.88
2022-12-06T19:40:06.856Z,18.05
2022-12-06T19:44:17.382Z,20.58
2022-12-06T19:48:19.081Z,16.70
2022-12-06T19:52:24.269Z,13.10
2022-12-06T19:56:28.656Z,12.45
2022-12-06T20:00:30.339Z,14.00
2022-12-06T20:04:34.843Z,14.30
2022-12-06T20:08:37.908Z,15.90
2022-12-06T20:12:39.512Z,14.95
2022-12-06T20:16:43.011Z,18.05
2022-12-06T20:20:48.605Z,14.88
2022-12-06T20:24:50.161Z,14.93
2022-12-06T20:28:51.760Z,19.92
2022-12-06T20:32:53.351Z,16.60
2022-12-06T20:36:55.843Z,17.85
2022-12-06T20:40:57.546Z,19.52
2022-12-06T20:45:00.379Z,14.93
2022-12-06T20:49:05.768Z,18.45
2022-12-06T20:53:08.756Z,17.98
2022-12-06T20:57:10.356Z,16.85
2022-12-06T21:01:19.208Z,14.20
2022-12-06T21:05:20.824Z,15.63
2022-12-06T21:09:22.413Z,16.23
2022-12-06T21:13:24.748Z,14.35
2022-12-06T21:17:26.239Z,12.05
2022-12-06T21:21:34.793Z,13.18
2022-12-06T21:25:37.316Z,14.85
2022-12-06T21:29:43.284Z,10.65
2022-12-06T21:33:45.067Z,10.82
2022-12-06T21:37:46.721Z,12.10
2022-12-06T21:41:48.214Z,12.18
2022-12-06T21:45:50.173Z,12.77
2022-12-06T21:49:51.704Z,10.32
2022-12-06T21:53:53.619Z,10.30
2022-12-06T21:57:55.305Z,10.77
2022-12-06T22:01:56.998Z,12.75
2022-12-06T22:06:00.087Z,12.07
2022-12-06T22:10:02.088Z,11.30
2022-12-06T22:14:04.963Z,12.88
2022-12-06T22:18:06.557Z,10.57
2022-12-06T22:22:08.331Z,11.95
2022-12-06T22:26:12.012Z,12.02
2022-12-06T22:30:14.876Z,15.05
2022-12-06T22:34:17.151Z,11.73
2022-12-06T22:38:18.785Z,15.50
2022-12-06T22:42:20.333Z,14.30
2022-12-06T22:46:22.586Z,14.27
2022-12-06T22:50:24.337Z,13.98
2022-12-06T22:54:26.523Z,12.23
2022-12-06T22:58:28.182Z,14.82
2022-12-06T23:02:29.752Z,12.63
2022-12-06T23:06:32.006Z,14.10
2022-12-06T23:10:33.648Z,13.55
2022-12-06T23:14:35.350Z,12.93
2022-12-06T23:18:37.116Z,16.10
2022-12-06T23:22:39.541Z,14.93
2022-12-06T23:26:50.656Z,15.95
2022-12-06T23:30:55.492Z,14.02
2022-12-06T23:34:57.209Z,15.55
2022-12-06T23:38:58.909Z,15.98
2022-12-06T23:43:00.606Z,15.43
2022-12-06T23:47:02.110Z,15.45
2022-12-06T23:51:12.258Z,15.77
2022-12-06T23:55:13.983Z,14.73
2022-12-06T23:59:16.624Z,16.17
